LICC/CTA METAR and TAF weather

Enter ICAO airport designator
Station Type Date Time Source
LICC METAR 2022/06/29 01:20 UTC NOAA

LICC 290120Z 23009KT CAVOK 25/12 Q1011


Station Type Date Time Source
LICC Decoded METAR 2022/06/29 01:20 UTC NOAA

Catania / Fontanarossa, Italy (LICC) 37-28N 015-03E 17M
Jun 28, 2022 - 09:20 PM EDT / 2022.06.29 0120 UTC
Wind: from the SW (230 degrees) at 10 MPH (9 KT):0
Visibility: greater than 7 mile(s):0
Temperature: 77 F (25 C)
Dew Point: 53 F (12 C)
Relative Humidity: 44%
Pressure (altimeter): 29.85 in. Hg (1011 hPa)
ob: LICC 290120Z 23009KT CAVOK 25/12 Q1011
cycle: 1

Station Type Date Time Source
LICC TAF 2022/06/28 18:24 UTC NOAA

TAF LICC 281700Z 2818/2918 08010KT CAVOK
BECMG 2819/2821 26006KT
BECMG 2908/2910 08013KT

Example: see airport list